createdAt,value
2019-03-27T00:01:53.492Z,74.80
2019-03-27T00:04:23.512Z,75.07
2019-03-27T00:06:53.435Z,75.03
2019-03-27T00:09:23.645Z,74.28
2019-03-27T00:11:53.664Z,74.10
2019-03-27T00:14:23.718Z,74.40
2019-03-27T00:16:53.660Z,73.90
2019-03-27T00:19:23.873Z,74.26
2019-03-27T00:21:53.835Z,74.09
2019-03-27T00:24:23.787Z,74.11
2019-03-27T00:26:53.761Z,74.46
2019-03-27T00:29:23.682Z,74.46
2019-03-27T00:31:53.826Z,74.47
2019-03-27T00:34:23.836Z,74.52
2019-03-27T00:36:53.872Z,74.68
2019-03-27T00:39:23.874Z,74.45
2019-03-27T00:41:53.899Z,74.23
2019-03-27T00:44:23.912Z,74.51
2019-03-27T00:46:53.907Z,74.17
2019-03-27T00:49:23.859Z,74.49
2019-03-27T00:51:53.868Z,74.58
2019-03-27T00:54:23.796Z,75.22
2019-03-27T00:56:53.788Z,75.71
2019-03-27T00:59:23.932Z,76.90
2019-03-27T01:01:53.964Z,77.45
2019-03-27T01:04:23.893Z,77.50
2019-03-27T01:06:53.883Z,77.45
2019-03-27T01:09:23.789Z,77.42
2019-03-27T01:11:53.910Z,77.73
2019-03-27T01:14:23.903Z,77.05
2019-03-27T01:16:53.961Z,77.24
2019-03-27T01:19:23.917Z,77.24
2019-03-27T01:21:53.952Z,77.70
2019-03-27T01:24:23.978Z,77.83
2019-03-27T01:26:53.982Z,77.32
2019-03-27T01:29:23.963Z,77.12
2019-03-27T01:31:54.024Z,77.20
2019-03-27T01:34:24.415Z,76.47
2019-03-27T01:36:54.383Z,76.40
2019-03-27T01:39:24.397Z,76.92
2019-03-27T01:41:54.425Z,76.67
2019-03-27T01:44:24.454Z,76.53
2019-03-27T01:46:54.473Z,76.66
2019-03-27T01:49:24.553Z,76.28
2019-03-27T01:51:54.813Z,76.18
2019-03-27T01:54:25.000Z,77.15
2019-03-27T01:56:55.335Z,77.57
2019-03-27T01:59:25.280Z,77.40
2019-03-27T02:01:55.465Z,76.60
2019-03-27T02:04:25.418Z,76.10
2019-03-27T02:06:55.406Z,76.69
2019-03-27T02:09:25.645Z,77.16
2019-03-27T02:11:55.897Z,75.62
2019-03-27T02:14:25.844Z,74.98
2019-03-27T02:16:55.775Z,75.09
2019-03-27T02:19:25.802Z,74.97
2019-03-27T02:21:55.738Z,74.33
2019-03-27T02:24:25.732Z,75.42
2019-03-27T02:26:55.674Z,75.43
2019-03-27T02:29:25.676Z,75.48
2019-03-27T02:31:55.681Z,74.81
2019-03-27T02:34:25.772Z,74.74
2019-03-27T02:36:55.727Z,75.00
2019-03-27T02:39:25.765Z,75.20
2019-03-27T02:41:55.677Z,74.55
2019-03-27T02:44:25.611Z,74.26
2019-03-27T02:46:55.802Z,74.65
2019-03-27T02:49:25.920Z,74.62
2019-03-27T02:51:55.939Z,74.68
2019-03-27T02:54:25.949Z,74.37
2019-03-27T02:56:55.900Z,75.38
2019-03-27T02:59:25.895Z,74.73
2019-03-27T03:01:55.929Z,73.96
2019-03-27T03:04:25.853Z,74.12
2019-03-27T03:06:55.764Z,74.60
2019-03-27T03:09:25.848Z,74.42
2019-03-27T03:11:56.133Z,74.84
2019-03-27T03:14:26.088Z,74.67
2019-03-27T03:16:56.008Z,75.50
2019-03-27T03:19:26.050Z,74.89
2019-03-27T03:21:55.963Z,74.83
2019-03-27T03:24:25.977Z,74.59
2019-03-27T03:26:56.076Z,75.05
2019-03-27T03:29:26.029Z,75.94
2019-03-27T03:31:56.141Z,75.54
2019-03-27T03:34:26.807Z,75.79
2019-03-27T03:36:56.890Z,75.39
2019-03-27T03:39:27.117Z,75.48
2019-03-27T03:41:57.140Z,75.49
2019-03-27T03:44:27.326Z,75.65
2019-03-27T03:46:59.896Z,75.51
2019-03-27T03:49:29.120Z,75.78
2019-03-27T03:51:59.147Z,75.82
2019-03-27T03:54:29.442Z,75.72
2019-03-27T03:56:59.898Z,75.94
2019-03-27T03:59:30.703Z,76.19
2019-03-27T04:02:03.791Z,76.13
2019-03-27T04:04:36.075Z,75.37
2019-03-27T04:07:05.992Z,75.37
2019-03-27T04:09:35.914Z,75.38
2019-03-27T04:12:05.835Z,75.80
2019-03-27T04:14:36.060Z,75.74
2019-03-27T04:17:17.060Z,75.28
2019-03-27T04:19:37.764Z,75.25
2019-03-27T04:22:07.807Z,75.46
2019-03-27T04:24:37.891Z,75.53
2019-03-27T04:27:07.806Z,76.11
2019-03-27T04:29:37.798Z,76.00
2019-03-27T04:32:07.741Z,76.52
2019-03-27T04:34:37.923Z,76.16
2019-03-27T04:37:08.376Z,76.10
2019-03-27T04:39:38.617Z,76.09
2019-03-27T04:42:08.575Z,75.60
2019-03-27T04:44:38.529Z,75.99
2019-03-27T04:47:08.440Z,75.56
2019-03-27T04:49:38.466Z,75.99
2019-03-27T04:52:08.554Z,75.15
2019-03-27T04:54:38.594Z,75.24
2019-03-27T04:57:08.497Z,75.47
2019-03-27T04:59:38.643Z,75.24
2019-03-27T05:02:08.634Z,75.18
2019-03-27T05:04:39.334Z,75.29
2019-03-27T05:07:09.375Z,75.45
2019-03-27T05:09:39.285Z,75.39
2019-03-27T05:12:09.258Z,75.48
2019-03-27T05:14:39.174Z,75.33
2019-03-27T05:17:09.105Z,75.99
2019-03-27T05:19:39.044Z,75.54
2019-03-27T05:22:08.973Z,75.74
2019-03-27T05:24:38.986Z,76.08
2019-03-27T05:27:09.410Z,76.05
2019-03-27T05:29:39.330Z,75.92
2019-03-27T05:32:09.451Z,76.36
2019-03-27T05:34:39.498Z,76.10
2019-03-27T05:37:09.606Z,75.84
2019-03-27T05:39:39.733Z,75.08
2019-03-27T05:42:09.846Z,74.99
2019-03-27T05:44:39.906Z,74.80
2019-03-27T05:47:09.932Z,74.93
2019-03-27T05:49:40.194Z,75.22
2019-03-27T05:52:10.129Z,75.98
2019-03-27T05:54:40.125Z,75.34
2019-03-27T05:57:10.060Z,74.89
2019-03-27T05:59:40.064Z,74.93
2019-03-27T06:02:10.052Z,75.08
2019-03-27T06:04:40.101Z,75.17
2019-03-27T06:07:10.352Z,75.01
2019-03-27T06:09:40.263Z,74.91
2019-03-27T06:12:10.374Z,74.86
2019-03-27T06:14:40.677Z,74.41
2019-03-27T06:17:11.109Z,74.12
2019-03-27T06:19:41.051Z,73.65
2019-03-27T06:22:11.351Z,74.00
2019-03-27T06:24:41.492Z,73.23
2019-03-27T06:27:11.742Z,73.27
2019-03-27T06:29:41.825Z,73.38
2019-03-27T06:32:11.840Z,73.05
2019-03-27T06:34:42.207Z,72.87
2019-03-27T06:37:12.249Z,72.75
2019-03-27T06:39:42.324Z,72.46
2019-03-27T06:42:12.423Z,73.02
2019-03-27T06:44:42.585Z,72.55
2019-03-27T06:47:12.616Z,72.70
2019-03-27T06:49:42.669Z,72.39
2019-03-27T06:52:12.915Z,72.02
2019-03-27T06:54:42.927Z,71.60
2019-03-27T06:57:13.126Z,71.48
2019-03-27T06:59:43.253Z,71.04
2019-03-27T07:02:13.274Z,71.84
2019-03-27T07:04:43.363Z,71.07
2019-03-27T07:07:13.482Z,70.61
2019-03-27T07:09:43.499Z,70.72
2019-03-27T07:12:21.109Z,70.13
2019-03-27T07:14:45.247Z,68.93
2019-03-27T07:17:15.174Z,69.76
2019-03-27T07:19:45.152Z,70.00
2019-03-27T07:22:15.212Z,70.14
2019-03-27T07:24:45.178Z,70.73
2019-03-27T07:27:15.743Z,70.36
2019-03-27T07:29:45.765Z,71.26
2019-03-27T07:32:15.873Z,70.89
2019-03-27T07:34:45.986Z,70.41
2019-03-27T07:37:16.086Z,68.95
2019-03-27T07:39:46.269Z,69.54
2019-03-27T07:42:16.334Z,68.99
2019-03-27T07:44:46.472Z,67.60
2019-03-27T07:47:16.400Z,67.60
2019-03-27T07:49:46.774Z,68.41
2019-03-27T07:52:16.733Z,68.45
2019-03-27T07:54:46.958Z,66.86
2019-03-27T07:57:16.989Z,66.98
2019-03-27T07:59:47.066Z,67.82
2019-03-27T08:02:17.209Z,67.74
2019-03-27T08:04:47.564Z,67.97
2019-03-27T08:07:26.753Z,67.10
2019-03-27T08:09:49.384Z,68.21
2019-03-27T08:12:19.713Z,67.08
2019-03-27T08:14:49.757Z,67.37
2019-03-27T08:17:19.846Z,67.90
2019-03-27T08:19:49.809Z,66.25
2019-03-27T08:22:19.993Z,67.02
2019-03-27T08:24:50.038Z,66.87
2019-03-27T08:27:20.339Z,67.02
2019-03-27T08:29:50.691Z,67.80
2019-03-27T08:32:20.616Z,66.01
2019-03-27T08:34:50.696Z,63.21
2019-03-27T08:37:20.937Z,64.74
2019-03-27T08:39:50.988Z,62.86
2019-03-27T08:42:21.034Z,62.62
2019-03-27T08:44:50.969Z,62.47
2019-03-27T08:47:20.897Z,61.05
2019-03-27T08:49:50.911Z,61.49
2019-03-27T08:52:20.857Z,61.49
2019-03-27T08:54:51.055Z,60.33
2019-03-27T08:57:20.996Z,60.33
2019-03-27T08:59:50.979Z,59.89
2019-03-27T09:02:21.140Z,59.43
2019-03-27T09:04:51.130Z,58.72
2019-03-27T09:07:21.341Z,58.72
2019-03-27T09:09:51.691Z,56.12
2019-03-27T09:12:21.593Z,56.08
2019-03-27T09:14:51.551Z,56.19
2019-03-27T09:17:21.808Z,56.28
2019-03-27T09:19:51.745Z,55.09
2019-03-27T09:22:21.865Z,55.09
2019-03-27T09:24:52.066Z,54.80
2019-03-27T09:27:22.312Z,51.52
2019-03-27T09:29:52.334Z,51.74
2019-03-27T09:32:22.556Z,50.89
2019-03-27T09:34:52.559Z,52.76
2019-03-27T09:37:22.727Z,52.62
2019-03-27T09:39:52.802Z,53.16
2019-03-27T09:42:22.709Z,53.00
2019-03-27T09:44:52.771Z,53.65
2019-03-27T09:47:22.942Z,53.56
2019-03-27T09:49:55.240Z,53.30
2019-03-27T09:52:25.340Z,52.53
2019-03-27T09:54:56.000Z,52.87
2019-03-27T09:57:25.961Z,50.75
2019-03-27T09:59:55.999Z,49.78
2019-03-27T10:02:26.050Z,49.38
2019-03-27T10:04:56.191Z,48.20
2019-03-27T10:07:26.275Z,48.55
2019-03-27T10:09:56.274Z,47.08
2019-03-27T10:12:26.961Z,48.97
2019-03-27T10:14:57.093Z,48.65
2019-03-27T10:17:27.109Z,47.87
2019-03-27T10:20:03.191Z,48.74
2019-03-27T10:22:28.822Z,47.83
2019-03-27T10:24:58.860Z,48.22
2019-03-27T10:27:29.047Z,47.72
2019-03-27T10:29:59.089Z,46.47
2019-03-27T10:32:29.127Z,46.57
2019-03-27T10:34:59.091Z,46.06
2019-03-27T10:37:29.062Z,45.80
2019-03-27T10:39:59.182Z,44.89
2019-03-27T10:42:29.140Z,44.90
2019-03-27T10:44:59.143Z,44.10
2019-03-27T10:47:29.122Z,45.17
2019-03-27T10:49:59.228Z,46.90
2019-03-27T10:52:29.314Z,47.04
2019-03-27T10:54:59.463Z,44.75
2019-03-27T10:57:29.372Z,45.48
2019-03-27T10:59:59.327Z,43.31
2019-03-27T11:02:29.423Z,42.87
2019-03-27T11:04:59.369Z,42.98
2019-03-27T11:07:29.361Z,43.23
2019-03-27T11:09:59.311Z,44.18
2019-03-27T11:12:29.239Z,44.81
2019-03-27T11:14:59.290Z,44.64
2019-03-27T11:17:29.432Z,44.20
2019-03-27T11:19:59.383Z,44.43
2019-03-27T11:22:29.328Z,44.23
2019-03-27T11:24:59.236Z,43.23
2019-03-27T11:27:29.519Z,44.23
2019-03-27T11:29:59.633Z,43.19
2019-03-27T11:32:30.028Z,42.93
2019-03-27T11:35:00.092Z,43.99
2019-03-27T11:37:30.284Z,41.87
2019-03-27T11:40:00.387Z,42.28
2019-03-27T11:42:30.557Z,42.89
2019-03-27T11:45:00.878Z,42.68
2019-03-27T11:47:31.031Z,45.21
2019-03-27T11:50:01.065Z,44.55
2019-03-27T11:52:31.151Z,45.77
2019-03-27T11:55:01.192Z,44.35
2019-03-27T11:57:34.072Z,43.68
2019-03-27T12:00:06.333Z,42.51
2019-03-27T12:02:36.309Z,44.45
2019-03-27T12:05:06.820Z,43.08
2019-03-27T12:07:36.970Z,43.03
2019-03-27T12:10:07.376Z,41.60
2019-03-27T12:12:37.739Z,43.25
2019-03-27T12:15:09.042Z,42.65
2019-03-27T12:17:39.101Z,41.55
2019-03-27T12:20:09.804Z,42.60
2019-03-27T12:22:39.763Z,43.46
2019-03-27T12:25:09.799Z,43.50
2019-03-27T12:27:39.938Z,44.28
2019-03-27T12:30:10.631Z,43.91
2019-03-27T12:32:40.627Z,43.73
2019-03-27T12:35:10.977Z,41.57
2019-03-27T12:37:40.967Z,42.35
2019-03-27T12:40:12.198Z,43.11
2019-03-27T12:42:42.232Z,43.01
2019-03-27T12:45:12.484Z,43.57
2019-03-27T12:47:42.567Z,42.71
2019-03-27T12:50:13.500Z,43.81
2019-03-27T12:52:43.651Z,43.12
2019-03-27T12:55:13.778Z,44.18
2019-03-27T12:57:43.808Z,43.73
2019-03-27T13:00:14.084Z,43.13
2019-03-27T13:02:44.042Z,42.00
2019-03-27T13:05:14.115Z,41.99
2019-03-27T13:07:49.745Z,42.21
2019-03-27T13:10:16.001Z,42.48
2019-03-27T13:12:46.063Z,42.69
2019-03-27T13:15:16.485Z,42.47
2019-03-27T13:17:46.418Z,42.69
2019-03-27T13:20:16.732Z,42.94
2019-03-27T13:22:46.705Z,41.72
2019-03-27T13:25:17.364Z,40.69
2019-03-27T13:27:47.702Z,40.58
2019-03-27T13:30:18.066Z,39.52
2019-03-27T13:32:48.081Z,39.42
2019-03-27T13:35:18.861Z,39.95
2019-03-27T13:37:48.845Z,41.00
2019-03-27T13:40:19.120Z,39.65
2019-03-27T13:42:49.173Z,40.33
2019-03-27T13:45:19.663Z,39.69
2019-03-27T13:47:49.756Z,39.77
2019-03-27T13:50:20.544Z,39.98
2019-03-27T13:52:50.557Z,39.08
2019-03-27T13:55:20.507Z,39.65
2019-03-27T13:57:50.482Z,39.23
2019-03-27T14:00:21.288Z,39.33
2019-03-27T14:02:51.414Z,40.38
2019-03-27T14:05:21.564Z,38.49
2019-03-27T14:07:51.579Z,37.03
2019-03-27T14:10:21.595Z,36.32
2019-03-27T14:12:51.535Z,34.87
2019-03-27T14:15:21.770Z,34.63
2019-03-27T14:17:52.049Z,38.30
2019-03-27T14:20:21.970Z,39.20
2019-03-27T14:22:51.934Z,38.58
2019-03-27T14:25:22.384Z,38.69
2019-03-27T14:27:52.536Z,39.89
2019-03-27T14:30:49.295Z,39.54
2019-03-27T14:33:19.673Z,42.25
2019-03-27T14:35:49.739Z,42.23
2019-03-27T14:38:19.686Z,42.12
2019-03-27T14:40:49.964Z,43.12
2019-03-27T14:43:19.980Z,43.01
2019-03-27T14:45:50.229Z,43.55
2019-03-27T14:48:20.392Z,44.74
2019-03-27T14:50:50.609Z,45.62
2019-03-27T14:53:20.667Z,46.01
2019-03-27T14:55:50.773Z,45.62
2019-03-27T14:58:20.722Z,45.85
2019-03-27T15:00:51.041Z,46.31
2019-03-27T15:03:21.070Z,46.00
2019-03-27T15:05:51.142Z,44.84
2019-03-27T15:08:21.313Z,45.69
2019-03-27T15:10:51.593Z,44.94
2019-03-27T15:13:21.990Z,45.72
2019-03-27T15:15:52.052Z,45.07
2019-03-27T15:18:22.136Z,44.98
2019-03-27T15:20:52.230Z,44.11
2019-03-27T15:23:22.374Z,44.47
2019-03-27T15:25:52.527Z,44.21
2019-03-27T15:28:22.539Z,44.45
2019-03-27T15:30:52.578Z,44.21
2019-03-27T15:33:22.851Z,43.91
2019-03-27T15:35:52.876Z,45.18
2019-03-27T15:38:22.904Z,44.66
2019-03-27T15:40:53.205Z,44.16
2019-03-27T15:43:23.349Z,43.56
2019-03-27T15:45:53.307Z,43.42
2019-03-27T15:48:23.309Z,42.55
2019-03-27T15:50:57.185Z,43.13
2019-03-27T15:53:25.426Z,42.80
2019-03-27T15:55:55.490Z,43.33
2019-03-27T15:58:25.627Z,44.11
2019-03-27T16:00:55.543Z,44.58
2019-03-27T16:03:25.561Z,45.56
2019-03-27T16:05:55.755Z,44.96
2019-03-27T16:08:25.835Z,44.86
2019-03-27T16:10:55.783Z,45.15
2019-03-27T16:13:25.919Z,45.16
2019-03-27T16:15:55.928Z,45.59
2019-03-27T16:18:25.942Z,45.76
2019-03-27T16:20:56.002Z,46.22
2019-03-27T16:23:26.063Z,46.00
2019-03-27T16:25:56.205Z,46.89
2019-03-27T16:28:26.562Z,46.25
2019-03-27T16:30:56.513Z,45.76
2019-03-27T16:33:26.508Z,46.24
2019-03-27T16:35:56.652Z,46.88
2019-03-27T16:38:26.636Z,47.26
2019-03-27T16:40:56.785Z,46.70
2019-03-27T16:43:26.724Z,47.09
2019-03-27T16:45:57.050Z,47.70
2019-03-27T16:48:27.086Z,47.66
2019-03-27T16:50:57.036Z,47.03
2019-03-27T16:53:27.176Z,47.88
2019-03-27T16:55:57.139Z,47.38
2019-03-27T16:58:27.197Z,48.18
2019-03-27T17:00:57.362Z,48.46
2019-03-27T17:03:27.363Z,48.23
2019-03-27T17:05:57.337Z,48.16
2019-03-27T17:08:27.495Z,49.34
2019-03-27T17:10:57.443Z,48.87
2019-03-27T17:13:27.492Z,49.37
2019-03-27T17:15:57.528Z,49.44
2019-03-27T17:18:28.339Z,49.08
2019-03-27T17:20:58.354Z,49.77
2019-03-27T17:23:28.387Z,49.24
2019-03-27T17:25:59.000Z,49.68
2019-03-27T17:28:28.926Z,48.89
2019-03-27T17:30:58.948Z,49.41
2019-03-27T17:33:28.978Z,49.69
2019-03-27T17:35:58.924Z,49.45
2019-03-27T17:38:28.918Z,49.87
2019-03-27T17:40:58.970Z,49.68
2019-03-27T17:43:29.143Z,50.24
2019-03-27T17:45:59.225Z,49.75
2019-03-27T17:48:29.156Z,49.86
2019-03-27T17:50:59.238Z,49.70
2019-03-27T17:53:32.105Z,50.61
2019-03-27T17:56:02.355Z,49.64
2019-03-27T17:58:32.611Z,49.66
2019-03-27T18:01:04.841Z,50.42
2019-03-27T18:03:34.892Z,50.86
2019-03-27T18:06:04.882Z,50.63
2019-03-27T18:08:34.965Z,50.40
2019-03-27T18:11:07.994Z,50.80
2019-03-27T18:13:37.127Z,50.31
2019-03-27T18:16:07.067Z,51.07
2019-03-27T18:18:37.065Z,50.55
2019-03-27T18:21:07.200Z,50.99
2019-03-27T18:23:46.001Z,50.52
2019-03-27T18:26:08.896Z,50.63
2019-03-27T18:28:38.958Z,51.30
2019-03-27T18:31:08.965Z,50.83
2019-03-27T18:33:38.910Z,51.42
2019-03-27T18:36:08.891Z,50.07
2019-03-27T18:38:38.827Z,50.52
2019-03-27T18:41:09.041Z,50.90
2019-03-27T18:43:39.029Z,50.45
2019-03-27T18:46:09.082Z,50.36
2019-03-27T18:48:39.082Z,51.07
2019-03-27T18:51:09.115Z,51.02
2019-03-27T18:53:39.121Z,50.27
2019-03-27T18:56:09.087Z,49.96
2019-03-27T18:58:39.026Z,51.03
2019-03-27T19:01:09.297Z,50.90
2019-03-27T19:03:39.309Z,51.04
2019-03-27T19:06:09.352Z,51.51
2019-03-27T19:08:39.514Z,50.34
2019-03-27T19:11:09.546Z,50.80
2019-03-27T19:13:39.678Z,51.19
2019-03-27T19:16:09.812Z,50.29
2019-03-27T19:18:39.739Z,50.64
2019-03-27T19:21:09.806Z,50.50
2019-03-27T19:23:39.889Z,50.45
2019-03-27T19:26:10.180Z,50.09
2019-03-27T19:28:40.301Z,51.46
2019-03-27T19:31:10.245Z,51.57
2019-03-27T19:33:40.259Z,51.95
2019-03-27T19:36:10.386Z,50.56
2019-03-27T19:38:40.588Z,51.45
2019-03-27T19:41:10.573Z,51.30
2019-03-27T19:43:40.533Z,51.50
2019-03-27T19:46:10.474Z,51.91
2019-03-27T19:48:40.654Z,50.48
2019-03-27T19:51:11.495Z,51.40
2019-03-27T19:53:41.834Z,50.81
2019-03-27T19:56:12.075Z,50.67
2019-03-27T19:58:42.288Z,51.34
2019-03-27T20:01:12.272Z,51.30
2019-03-27T20:03:42.255Z,51.31
2019-03-27T20:06:12.212Z,51.61
2019-03-27T20:08:42.279Z,51.26
2019-03-27T20:11:12.340Z,50.18
2019-03-27T20:13:42.391Z,50.55
2019-03-27T20:16:12.448Z,50.24
2019-03-27T20:18:42.414Z,51.90
2019-03-27T20:21:12.525Z,50.34
2019-03-27T20:23:42.542Z,51.62
2019-03-27T20:26:12.555Z,51.43
2019-03-27T20:28:42.801Z,52.02
2019-03-27T20:31:13.000Z,51.52
2019-03-27T20:33:43.161Z,51.93
2019-03-27T20:36:13.320Z,52.34
2019-03-27T20:38:43.459Z,52.94
2019-03-27T20:41:13.499Z,52.68
2019-03-27T20:43:43.445Z,52.96
2019-03-27T20:46:24.367Z,53.40
2019-03-27T20:48:45.135Z,53.55
2019-03-27T20:51:15.221Z,53.97
2019-03-27T20:53:45.226Z,54.16
2019-03-27T20:56:15.164Z,53.76
2019-03-27T20:58:45.134Z,53.99
2019-03-27T21:01:15.266Z,55.74
2019-03-27T21:03:45.194Z,55.96
2019-03-27T21:06:15.145Z,56.56
2019-03-27T21:08:45.118Z,57.27
2019-03-27T21:11:15.211Z,57.46
2019-03-27T21:13:45.156Z,57.39
2019-03-27T21:16:15.086Z,57.74
2019-03-27T21:18:45.405Z,57.48
2019-03-27T21:21:15.450Z,57.47
2019-03-27T21:23:45.793Z,57.33
2019-03-27T21:26:15.749Z,57.36
2019-03-27T21:28:45.903Z,56.95
2019-03-27T21:31:15.863Z,56.17
2019-03-27T21:33:45.818Z,55.40
2019-03-27T21:36:15.774Z,55.89
2019-03-27T21:38:46.029Z,56.22
2019-03-27T21:41:15.966Z,56.82
2019-03-27T21:43:46.389Z,56.47
2019-03-27T21:46:16.531Z,56.01
2019-03-27T21:48:46.465Z,55.53
2019-03-27T21:51:16.816Z,55.51
2019-03-27T21:53:50.592Z,55.63
2019-03-27T21:56:18.414Z,55.61
2019-03-27T21:58:48.775Z,55.78
2019-03-27T22:01:19.045Z,55.68
2019-03-27T22:03:49.219Z,55.73
2019-03-27T22:06:19.275Z,56.16
2019-03-27T22:08:49.291Z,56.16
2019-03-27T22:11:19.334Z,57.13
2019-03-27T22:13:49.341Z,57.08
2019-03-27T22:16:19.488Z,57.62
2019-03-27T22:18:49.438Z,57.53
2019-03-27T22:21:19.429Z,58.38
2019-03-27T22:23:49.540Z,59.62
2019-03-27T22:26:19.578Z,59.62
2019-03-27T22:28:49.559Z,58.54
2019-03-27T22:31:19.648Z,58.54
2019-03-27T22:33:49.712Z,59.03
2019-03-27T22:36:19.624Z,58.63
2019-03-27T22:38:49.767Z,59.20
2019-03-27T22:41:19.822Z,58.85
2019-03-27T22:43:49.910Z,59.00
2019-03-27T22:46:19.928Z,59.16
2019-03-27T22:48:50.022Z,58.11
2019-03-27T22:51:20.050Z,58.11
2019-03-27T22:53:50.190Z,58.30
2019-03-27T22:56:20.180Z,58.30
2019-03-27T22:58:50.290Z,58.53
2019-03-27T23:01:20.447Z,58.63
2019-03-27T23:03:50.651Z,58.35
2019-03-27T23:06:20.717Z,58.35
2019-03-27T23:08:50.764Z,58.82
2019-03-27T23:11:20.705Z,58.82
2019-03-27T23:13:50.616Z,58.55
2019-03-27T23:16:20.717Z,58.52
2019-03-27T23:18:50.638Z,58.52
2019-03-27T23:21:20.716Z,59.18
2019-03-27T23:23:50.726Z,58.82
2019-03-27T23:26:20.786Z,58.82
2019-03-27T23:28:50.845Z,58.69
2019-03-27T23:31:20.755Z,58.66
2019-03-27T23:33:50.702Z,59.88
2019-03-27T23:36:20.698Z,59.05
2019-03-27T23:38:50.830Z,59.05
2019-03-27T23:41:20.763Z,59.34
2019-03-27T23:43:50.799Z,59.68
2019-03-27T23:46:20.840Z,59.56
2019-03-27T23:48:50.799Z,59.67
2019-03-27T23:51:20.871Z,59.78
2019-03-27T23:53:51.076Z,59.78
2019-03-27T23:56:21.140Z,59.47
2019-03-27T23:58:51.150Z,59.59
